Philip, SD

4:13 PM MST on March 02, 2015 (GMT -0700)
Rapid City | Change Station
CLOSE
Current Station
Airport
Location: Rapid City,
Elevation: 3166 ft
Nearby Weather Stations
Active Advisory: Winter Storm Warning

Elev 3166 ft 44.05 °N, 103.06 °W | Updated 21 minutes ago

Clear
Clear
46 °F
Feels Like 41 °F
N
10
Wind Variable Wind from North

Today
High -- | Low -- °F
--% Chance of Precip.
Yesterday
High -- | Low -- °F
Precip. -- in
6:22 AM 5:36 PM
Waxing Gibbous, 93% visible
Pressure 29.78 in
Visibility 10.0 miles
Clouds Clear
Windchill 41 °F
Dew Point 28 °F
Humidity 50%
Rainfall 0.00 in
Snow Depth Not available.
UV 1 out of 12
Pollen 1.20 out of 12
Air Quality Not available.
Flu Activity Not available.
METAR KRAP 022252Z 35009KT 10SM CLR 08/M02 A2969 RMK AO2 SLP082 T00781022

More Conditions Fewer Conditions

Pressure 29.78 in
Visibility 10.0 miles
Clouds Clear
Windchill 41 °F
Dew Point 28 °F
Humidity 50%
Rainfall 0.00 in
Snow Depth Not available.
UV 1 out of 12
Pollen 1.20 out of 12
Air Quality Not available.
Flu Activity Not available.
METAR KRAP 022252Z 35009KT 10SM CLR 08/M02 A2969 RMK AO2 SLP082 T00781022

More Conditions Fewer Conditions

10-Day Weather Forecast

Almanac

Astronomy

Mar. 02, 2015 Rise Set
Actual Time
Civil Twilight
Nautical Twilight
Astronomical Twilight
Moon
Length of Visible Light
Length of Day
Tomorrow will be .
, % of the Moon is Illuminated

Today's Extremes

State Highs State Lows

Community

WunderPhotos

Upload Photos

1,801,995 photos uploaded!

WunderBlogs® & News

Nearby

Air Quality

  Air Quality AQ Index Pollutant
Not available.

Snow Depth

Station Depth Elevation

Earthquake Activity

City Distance Mag. Time & Date
Minimum magnitude displayed is 2.5.

Coastal Water Temperatures

Place Temperature

Nearby Weather Stations

Winter Storm Warning
Statement as of 2:29 PM CST on March 02, 2015

... Winter Storm Warning in effect from 11 PM MST /midnight CST/
this evening to noon MST /1 PM CST/ Tuesday...

The National Weather Service in Rapid City has issued a Winter
Storm Warning for snow and blowing snow... which is in effect from
11 PM MST /midnight CST/ this evening to noon MST /1 PM CST/
Tuesday.

* Timing... late this evening into Tuesday morning.

* Main hazard... snowfall of 2 to 5 inches along with northwest
winds gusting in excess of 40 mph will produce visibilities less
than one half miles at times due to blowing snow.

* Impacts... travel will become very difficult late tonight into
Tuesday.

Precautionary/preparedness actions...

This Winter Storm Warning means snow and strong winds will create
dangerous conditions.